createdAt,value
2023-03-14T00:00:16.287Z,69.464706
2023-03-14T00:05:15.802Z,69.828467
2023-03-14T00:10:17.070Z,70.283453
2023-03-14T00:15:15.993Z,69.937226
2023-03-14T00:20:16.482Z,69.622464
2023-03-14T00:25:15.822Z,69.022628
2023-03-14T00:30:15.836Z,69.341606
2023-03-14T00:35:15.603Z,69.142336
2023-03-14T00:40:17.109Z,69.696324
2023-03-14T00:45:16.886Z,69.625362
2023-03-14T00:50:21.474Z,70.166423
2023-03-14T00:55:16.342Z,70.237956
2023-03-14T01:00:16.723Z,70.565942
2023-03-14T01:05:15.899Z,70.527737
2023-03-14T01:10:16.720Z,70.867391
2023-03-14T01:15:16.334Z,70.710949
2023-03-14T01:20:16.882Z,69.875540
2023-03-14T01:25:17.028Z,63.698540
2023-03-14T01:30:15.968Z,60.815217
2023-03-14T01:35:15.589Z,60.565468
2023-03-14T01:40:16.124Z,60.526812
2023-03-14T01:45:15.808Z,61.566667
2023-03-14T01:50:16.024Z,62.166667
2023-03-14T01:55:16.045Z,62.709790
2023-03-14T02:00:16.006Z,61.785816
2023-03-14T02:05:16.479Z,61.897872
2023-03-14T02:10:15.930Z,61.863121
2023-03-14T02:15:16.291Z,61.781560
2023-03-14T02:20:16.503Z,61.896429
2023-03-14T02:25:15.846Z,62.388489
2023-03-14T02:30:16.103Z,62.951773
2023-03-14T02:35:17.503Z,62.850714
2023-03-14T02:40:15.699Z,63.176978
2023-03-14T02:45:16.914Z,63.919424
2023-03-14T02:50:15.972Z,64.644928
2023-03-14T02:55:15.978Z,65.413571
2023-03-14T03:00:15.577Z,65.900000
2023-03-14T03:05:16.008Z,67.042553
2023-03-14T03:10:16.141Z,67.563380
2023-03-14T03:15:17.381Z,67.132624
2023-03-14T03:20:16.969Z,67.129078
2023-03-14T03:25:16.375Z,67.627273
2023-03-14T03:30:16.592Z,69.137143
2023-03-14T03:35:15.844Z,70.709353
2023-03-14T03:40:17.284Z,71.552518
2023-03-14T03:45:18.109Z,72.521583
2023-03-14T03:50:16.519Z,72.973381
2023-03-14T03:55:16.135Z,73.513139
2023-03-14T04:00:16.346Z,73.627737
2023-03-14T04:05:15.806Z,73.632374
2023-03-14T04:10:15.794Z,73.413043
2023-03-14T04:15:16.424Z,73.263571
2023-03-14T04:20:20.612Z,73.414184
2023-03-14T04:25:16.488Z,72.889209
2023-03-14T04:30:15.988Z,72.645000
2023-03-14T04:35:15.966Z,72.923741
2023-03-14T04:40:18.607Z,72.675000
2023-03-14T04:45:16.116Z,72.741549
2023-03-14T04:50:16.052Z,72.496403
2023-03-14T04:55:15.623Z,72.712766
2023-03-14T05:00:16.138Z,72.756429
2023-03-14T05:05:16.960Z,74.319149
2023-03-14T05:10:16.360Z,74.482143
2023-03-14T05:15:15.985Z,75.030714
2023-03-14T05:20:16.764Z,75.377305
2023-03-14T05:25:16.031Z,75.779286
2023-03-14T05:30:15.719Z,75.884173
2023-03-14T05:35:16.410Z,75.628777
2023-03-14T05:40:16.783Z,75.783571
2023-03-14T05:45:17.458Z,76.097826
2023-03-14T05:50:16.000Z,76.516429
2023-03-14T05:55:15.865Z,76.466429
2023-03-14T06:00:16.173Z,76.104255
2023-03-14T06:05:16.220Z,76.079021
2023-03-14T06:10:15.879Z,76.388276
2023-03-14T06:15:15.533Z,76.071631
2023-03-14T06:20:15.726Z,76.366667
2023-03-14T06:25:15.982Z,76.742361
2023-03-14T06:30:15.798Z,76.446528
2023-03-14T06:35:16.544Z,76.204167
2023-03-14T06:40:16.645Z,76.040278
2023-03-14T06:45:16.501Z,76.052113
2023-03-14T06:50:16.314Z,76.357639
2023-03-14T06:55:22.568Z,76.561538
2023-03-14T07:00:15.672Z,76.647552
2023-03-14T07:05:16.852Z,76.838889
2023-03-14T07:10:16.342Z,77.144056
2023-03-14T07:15:19.093Z,77.403497
2023-03-14T07:20:16.509Z,77.242958
2023-03-14T07:25:15.894Z,77.443262
2023-03-14T07:30:21.171Z,77.144928
2023-03-14T07:35:16.097Z,77.522143
2023-03-14T07:40:16.477Z,78.073239
2023-03-14T07:45:15.879Z,77.826207
2023-03-14T07:50:16.737Z,77.825000
2023-03-14T07:55:16.148Z,77.649650
2023-03-14T08:00:16.106Z,77.234043
2023-03-14T08:05:17.053Z,77.622302
2023-03-14T08:10:16.109Z,77.835971
2023-03-14T08:15:16.387Z,78.239286
2023-03-14T08:20:15.694Z,78.343885
2023-03-14T08:25:16.547Z,78.588489
2023-03-14T08:30:16.106Z,78.600000
2023-03-14T08:35:16.870Z,78.843262
2023-03-14T08:40:17.555Z,78.712676
2023-03-14T08:45:16.947Z,78.768056
2023-03-14T08:50:16.551Z,79.083803
2023-03-14T08:55:20.773Z,78.964539
2023-03-14T09:00:16.523Z,78.963380
2023-03-14T09:05:16.008Z,78.781379
2023-03-14T09:10:16.385Z,78.952448
2023-03-14T09:15:16.420Z,78.939437
2023-03-14T09:20:16.717Z,79.214789
2023-03-14T09:25:16.334Z,79.240278
2023-03-14T09:30:15.518Z,79.504930
2023-03-14T09:35:17.604Z,79.697163
2023-03-14T09:40:17.030Z,79.990000
2023-03-14T09:45:15.886Z,80.262857
2023-03-14T09:50:17.425Z,80.195683
2023-03-14T09:55:17.232Z,80.458273
2023-03-14T10:00:17.066Z,80.367626
2023-03-14T10:05:17.358Z,80.445588
2023-03-14T10:10:16.787Z,80.740580
2023-03-14T10:15:15.668Z,80.989928
2023-03-14T10:20:16.482Z,81.285714
2023-03-14T10:25:15.701Z,81.377698
2023-03-14T10:30:18.045Z,81.445714
2023-03-14T10:35:16.485Z,81.404317
2023-03-14T10:40:15.737Z,81.382734
2023-03-14T10:45:16.744Z,81.394964
2023-03-14T10:50:17.305Z,81.140000
2023-03-14T10:55:16.214Z,81.025899
2023-03-14T11:00:16.140Z,80.802143
2023-03-14T11:05:16.479Z,80.631429
2023-03-14T11:10:16.025Z,80.735664
2023-03-14T11:15:16.170Z,81.131915
2023-03-14T11:20:16.338Z,81.034752
2023-03-14T11:25:16.179Z,81.003546
2023-03-14T11:30:16.104Z,81.091549
2023-03-14T11:35:16.121Z,81.101418
2023-03-14T11:40:16.371Z,81.121831
2023-03-14T11:45:16.897Z,81.273050
2023-03-14T11:50:16.351Z,81.304196
2023-03-14T11:55:20.695Z,81.170345
2023-03-14T12:00:16.590Z,81.021831
2023-03-14T12:05:15.819Z,80.524476
2023-03-14T12:10:16.142Z,80.331034
2023-03-14T12:15:15.994Z,80.021678
2023-03-14T12:20:16.141Z,79.919580
2023-03-14T12:25:17.112Z,79.803497
2023-03-14T12:30:15.936Z,79.694406
2023-03-14T12:35:16.028Z,80.012057
2023-03-14T12:40:16.682Z,80.212319
2023-03-14T12:45:16.561Z,79.935252
2023-03-14T12:50:16.764Z,79.602098
2023-03-14T12:55:16.845Z,79.742553
2023-03-14T13:00:17.046Z,79.430070
2023-03-14T13:05:15.952Z,78.927273
2023-03-14T13:10:15.582Z,78.295775
2023-03-14T13:15:17.329Z,77.985211
2023-03-14T13:20:15.926Z,78.226207
2023-03-14T13:25:17.388Z,78.491724
2023-03-14T13:30:17.607Z,78.929655
2023-03-14T13:35:17.330Z,78.984828
2023-03-14T13:40:17.500Z,79.211724
2023-03-14T13:45:17.136Z,78.968750
2023-03-14T13:50:17.635Z,79.173759
2023-03-14T13:55:16.109Z,79.362143
2023-03-14T14:00:15.707Z,79.370213
2023-03-14T14:05:17.083Z,79.300709
2023-03-14T14:10:16.316Z,79.464539
2023-03-14T14:15:15.885Z,79.787943
2023-03-14T14:20:17.707Z,79.929787
2023-03-14T14:25:17.556Z,79.975887
2023-03-14T14:30:15.678Z,80.115493
2023-03-14T14:35:15.588Z,80.407042
2023-03-14T14:40:16.197Z,80.615493
2023-03-14T14:45:16.966Z,80.308333
2023-03-14T14:50:16.930Z,80.217123
2023-03-14T14:55:21.304Z,80.101389
2023-03-14T15:00:15.983Z,79.575524
2023-03-14T15:05:16.797Z,79.230070
2023-03-14T15:10:16.667Z,78.811888
2023-03-14T15:15:15.728Z,77.965248
2023-03-14T15:20:16.101Z,77.739007
2023-03-14T15:25:39.862Z,77.726241
2023-03-14T15:30:16.179Z,77.795035
2023-03-14T15:35:17.772Z,77.807092
2023-03-14T15:40:17.042Z,78.502113
2023-03-14T15:45:16.159Z,78.414583
2023-03-14T15:50:16.024Z,77.964789
2023-03-14T15:55:16.625Z,77.614789
2023-03-14T16:00:15.775Z,77.649645
2023-03-14T16:05:16.797Z,77.139716
2023-03-14T16:10:15.586Z,76.719858
2023-03-14T16:15:16.912Z,75.955319
2023-03-14T16:20:16.069Z,75.353901
2023-03-14T16:25:15.574Z,74.892199
2023-03-14T16:30:16.499Z,74.380282
2023-03-14T16:35:16.128Z,73.889510
2023-03-14T16:40:17.016Z,73.872222
2023-03-14T16:45:15.567Z,73.388028
2023-03-14T16:50:16.213Z,72.913986
2023-03-14T16:55:15.850Z,72.225694
2023-03-14T17:00:16.915Z,71.291429
2023-03-14T17:05:17.764Z,70.146099
2023-03-14T17:10:17.763Z,69.399281
2023-03-14T17:15:16.263Z,68.958993
2023-03-14T17:20:16.494Z,68.713380
2023-03-14T17:25:15.753Z,68.101399
2023-03-14T17:30:16.472Z,67.141549
2023-03-14T17:35:15.749Z,65.930496
2023-03-14T17:40:16.163Z,65.004895
2023-03-14T17:45:17.220Z,64.455319
2023-03-14T17:50:16.394Z,65.156028
2023-03-14T17:55:16.122Z,65.805634
2023-03-14T18:00:16.135Z,65.425180
2023-03-14T18:05:15.943Z,65.287857
2023-03-14T18:10:16.655Z,64.524638
2023-03-14T18:15:16.095Z,63.987234
2023-03-14T18:20:15.785Z,63.746809
2023-03-14T18:25:15.692Z,63.260284
2023-03-14T18:30:16.331Z,63.552817
2023-03-14T18:35:16.527Z,62.741844
2023-03-14T18:40:15.671Z,61.445775
2023-03-14T18:45:16.208Z,60.708392
2023-03-14T18:50:15.834Z,60.251079
2023-03-14T18:55:16.099Z,59.715278
2023-03-14T19:00:15.842Z,58.036054
2023-03-14T19:05:18.481Z,58.470629
2023-03-14T19:10:15.838Z,58.825694
2023-03-14T19:15:15.604Z,58.481250
2023-03-14T19:20:16.016Z,58.445205
2023-03-14T19:25:15.677Z,57.866207
2023-03-14T19:30:16.355Z,56.532877
2023-03-14T19:35:15.704Z,57.032394
2023-03-14T19:40:16.165Z,55.776923
2023-03-14T19:45:15.839Z,54.334965
2023-03-14T19:50:15.946Z,54.163889
2023-03-14T19:55:16.890Z,53.891608
2023-03-14T20:00:16.945Z,53.847552
2023-03-14T20:05:15.938Z,53.231724
2023-03-14T20:10:16.130Z,53.000680
2023-03-14T20:15:16.974Z,53.670345
2023-03-14T20:20:15.563Z,52.980272
2023-03-14T20:25:15.792Z,52.190345
2023-03-14T20:30:15.645Z,51.860274
2023-03-14T20:35:17.092Z,50.436486
2023-03-14T20:40:17.150Z,49.783893
2023-03-14T20:45:15.994Z,50.236486
2023-03-14T20:50:16.285Z,50.951701
2023-03-14T20:55:16.548Z,51.055862
2023-03-14T21:00:16.081Z,49.692517
2023-03-14T21:05:16.198Z,48.166667
2023-03-14T21:10:16.530Z,47.953691
2023-03-14T21:15:16.117Z,46.934228
2023-03-14T21:20:15.730Z,48.024324
2023-03-14T21:25:16.117Z,47.087838
2023-03-14T21:30:16.120Z,47.145578
2023-03-14T21:35:16.333Z,49.246622
2023-03-14T21:40:15.780Z,48.560135
2023-03-14T21:45:16.317Z,48.771429
2023-03-14T21:50:16.105Z,48.964430
2023-03-14T21:55:15.894Z,49.427027
2023-03-14T22:00:15.644Z,49.744966
2023-03-14T22:05:15.707Z,49.844295
2023-03-14T22:10:15.787Z,50.506000
2023-03-14T22:15:15.522Z,48.267785
2023-03-14T22:20:16.633Z,50.375676
2023-03-14T22:25:16.344Z,51.829333
2023-03-14T22:30:17.664Z,52.930000
2023-03-14T22:35:16.134Z,54.048299
2023-03-14T22:40:15.939Z,54.916327
2023-03-14T22:45:15.816Z,53.989933
2023-03-14T22:50:15.603Z,53.142177
2023-03-14T22:55:15.824Z,54.845890
2023-03-14T23:00:16.465Z,54.904082
2023-03-14T23:05:18.759Z,54.019728
2023-03-14T23:10:15.972Z,54.185616
2023-03-14T23:15:16.838Z,53.442759
2023-03-14T23:20:16.142Z,52.578082
2023-03-14T23:25:15.957Z,51.160839
2023-03-14T23:30:15.971Z,50.728082
2023-03-14T23:35:16.800Z,48.795205
2023-03-14T23:40:17.405Z,47.574658
2023-03-14T23:45:15.669Z,46.460690
2023-03-14T23:50:15.756Z,46.733333
2023-03-14T23:55:16.322Z,46.530282
